Terminal Aerodrome Forecast
Issued by NWS Sioux Falls, SD

Home | Current Version | Previous Version | Text Only | Print | Product List | Glossary On
Versions: 1 2 3 4 5 6 7 8 9 10 11 12 13 14 15 16 17 18
000
FTUS43 KFSD 061152 CCA
TAFFSD
TAF COR
KFSD 061152Z 0612/0712 14014KT P6SM VCSH SCT020 BKN040
     FM061500 16017G22KT P6SM -SHRA BKN015
      TEMPO 0615/0619 4SM -RA
     FM062000 15013G18KT P6SM VCTS SCT025CB OVC035
     FM070300 15013KT 4SM -TSRA BKN025CB OVC050=

USA.gov is the U.S. government's official web portal to all federal, state and local government web resources and services.